createdAt,value
2019-01-31T00:00:06.261Z,979.44
2019-01-31T00:01:06.277Z,979.39
2019-01-31T00:02:06.292Z,979.4
2019-01-31T00:03:06.306Z,979.43
2019-01-31T00:04:06.376Z,979.4
2019-01-31T00:05:06.336Z,979.39
2019-01-31T00:06:06.352Z,979.36
2019-01-31T00:07:06.365Z,979.38
2019-01-31T00:08:06.383Z,979.36
2019-01-31T00:09:06.397Z,979.35
2019-01-31T00:10:06.410Z,979.36
2019-01-31T00:11:06.426Z,979.33
2019-01-31T00:12:06.444Z,979.34
2019-01-31T00:13:06.456Z,979.36
2019-01-31T00:14:06.471Z,979.33
2019-01-31T00:15:06.486Z,979.31
2019-01-31T00:16:06.500Z,979.35
2019-01-31T00:17:06.515Z,979.35
2019-01-31T00:18:06.530Z,979.33
2019-01-31T00:19:06.545Z,979.3
2019-01-31T00:20:06.562Z,979.34
2019-01-31T00:21:06.576Z,979.31
2019-01-31T00:22:06.621Z,979.37
2019-01-31T00:23:06.606Z,979.31
2019-01-31T00:24:06.622Z,979.34
2019-01-31T00:25:06.635Z,979.39
2019-01-31T00:26:06.650Z,979.37
2019-01-31T00:27:06.666Z,979.42
2019-01-31T00:28:06.681Z,979.44
2019-01-31T00:29:06.698Z,979.41
2019-01-31T00:30:06.710Z,979.45
2019-01-31T00:31:06.730Z,979.45
2019-01-31T00:32:06.739Z,979.44
2019-01-31T00:33:06.754Z,979.42
2019-01-31T00:34:06.771Z,979.43
2019-01-31T00:35:06.789Z,979.46
2019-01-31T00:36:06.800Z,979.42
2019-01-31T00:37:06.815Z,979.46
2019-01-31T00:38:06.837Z,979.47
2019-01-31T00:39:06.845Z,979.44
2019-01-31T00:40:06.859Z,979.48
2019-01-31T00:41:06.876Z,979.47
2019-01-31T00:42:06.891Z,979.5
2019-01-31T00:43:06.904Z,979.46
2019-01-31T00:44:06.921Z,979.45
2019-01-31T00:45:06.937Z,979.49
2019-01-31T00:46:06.953Z,979.51
2019-01-31T00:47:06.965Z,979.55
2019-01-31T00:48:06.983Z,979.54
2019-01-31T00:49:06.999Z,979.58
2019-01-31T00:50:07.011Z,979.58
2019-01-31T00:51:07.034Z,979.56
2019-01-31T00:52:07.042Z,979.57
2019-01-31T00:53:07.058Z,979.57
2019-01-31T00:54:07.071Z,979.58
2019-01-31T00:55:07.088Z,979.56
2019-01-31T00:56:07.103Z,979.61
2019-01-31T00:57:07.118Z,979.54
2019-01-31T00:58:07.137Z,979.57
2019-01-31T00:59:07.150Z,979.58
2019-01-31T01:00:07.162Z,979.55
2019-01-31T01:01:07.177Z,979.58
2019-01-31T01:02:07.194Z,979.58
2019-01-31T01:03:07.207Z,979.61
2019-01-31T01:04:07.222Z,979.59
2019-01-31T01:05:07.241Z,979.61
2019-01-31T01:06:07.253Z,979.57
2019-01-31T01:07:07.267Z,979.59
2019-01-31T01:08:07.283Z,979.64
2019-01-31T01:09:07.939Z,979.6
2019-01-31T01:10:07.314Z,979.58
2019-01-31T01:11:07.331Z,979.63
2019-01-31T01:12:07.343Z,979.62
2019-01-31T01:13:07.360Z,979.62
2019-01-31T01:14:07.373Z,979.62
2019-01-31T01:15:07.389Z,979.67
2019-01-31T01:16:07.402Z,979.68
2019-01-31T01:17:07.418Z,979.71
2019-01-31T01:18:07.433Z,979.74
2019-01-31T01:19:07.455Z,979.75
2019-01-31T01:20:07.463Z,979.77
2019-01-31T01:21:07.478Z,979.74
2019-01-31T01:22:07.494Z,979.76
2019-01-31T01:23:07.506Z,979.77
2019-01-31T01:24:07.522Z,979.78
2019-01-31T01:25:07.539Z,979.76
2019-01-31T01:26:07.554Z,979.8
2019-01-31T01:27:07.567Z,979.78
2019-01-31T01:28:07.583Z,979.81
2019-01-31T01:29:07.599Z,979.8
2019-01-31T01:30:07.613Z,979.8
2019-01-31T01:31:07.635Z,979.78
2019-01-31T01:32:07.644Z,979.81
2019-01-31T01:33:07.659Z,979.8
2019-01-31T01:34:07.672Z,979.79
2019-01-31T01:35:07.688Z,979.81
2019-01-31T01:36:07.703Z,979.75
2019-01-31T01:37:07.717Z,979.8
2019-01-31T01:38:07.734Z,979.78
2019-01-31T01:39:18.583Z,979.82
2019-01-31T01:40:07.764Z,979.8
2019-01-31T01:41:07.779Z,979.8
2019-01-31T01:42:07.793Z,979.8
2019-01-31T01:43:07.809Z,979.81
2019-01-31T01:44:07.827Z,979.79
2019-01-31T01:45:07.839Z,979.76
2019-01-31T01:46:07.854Z,979.79
2019-01-31T01:47:07.873Z,979.78
2019-01-31T01:48:07.883Z,979.77
2019-01-31T01:49:07.899Z,979.78
2019-01-31T01:50:07.914Z,979.78
2019-01-31T01:51:07.931Z,979.82
2019-01-31T01:52:07.946Z,979.78
2019-01-31T01:53:07.958Z,979.8
2019-01-31T01:54:07.974Z,979.79
2019-01-31T01:55:07.988Z,979.79
2019-01-31T01:56:08.003Z,979.77
2019-01-31T01:57:08.018Z,979.82
2019-01-31T01:58:08.034Z,979.8
2019-01-31T01:59:08.050Z,979.84
2019-01-31T02:00:08.113Z,979.81
2019-01-31T02:01:08.079Z,979.79
2019-01-31T02:02:08.092Z,979.81
2019-01-31T02:03:08.109Z,979.86
2019-01-31T02:04:08.124Z,979.86
2019-01-31T02:05:08.139Z,979.86
2019-01-31T02:06:08.154Z,979.86
2019-01-31T02:07:08.168Z,979.85
2019-01-31T02:08:08.185Z,979.89
2019-01-31T02:09:08.199Z,979.9
2019-01-31T02:10:08.217Z,979.89
2019-01-31T02:11:08.229Z,979.92
2019-01-31T02:12:08.244Z,979.94
2019-01-31T02:13:08.260Z,979.91
2019-01-31T02:14:08.275Z,979.93
2019-01-31T02:15:08.290Z,979.89
2019-01-31T02:16:08.305Z,979.95
2019-01-31T02:17:08.320Z,979.93
2019-01-31T02:18:08.337Z,979.91
2019-01-31T02:19:08.358Z,979.91
2019-01-31T02:20:08.364Z,979.89
2019-01-31T02:21:08.382Z,979.93
2019-01-31T02:22:08.395Z,979.9
2019-01-31T02:23:08.409Z,979.93
2019-01-31T02:24:08.426Z,979.93
2019-01-31T02:25:08.440Z,979.91
2019-01-31T02:26:08.455Z,979.92
2019-01-31T02:27:08.471Z,979.89
2019-01-31T02:28:08.486Z,979.86
2019-01-31T02:29:08.500Z,979.89
2019-01-31T02:30:08.545Z,979.88
2019-01-31T02:31:08.530Z,979.89
2019-01-31T02:32:08.545Z,979.85
2019-01-31T02:33:08.560Z,979.86
2019-01-31T02:34:08.574Z,979.88
2019-01-31T02:35:08.591Z,979.87
2019-01-31T02:36:08.605Z,979.87
2019-01-31T02:37:08.620Z,979.87
2019-01-31T02:38:08.635Z,979.86
2019-01-31T02:39:08.662Z,979.87
2019-01-31T02:40:08.680Z,979.86
2019-01-31T02:41:08.682Z,979.84
2019-01-31T02:42:08.695Z,979.88
2019-01-31T02:43:08.710Z,979.84
2019-01-31T02:44:08.726Z,979.84
2019-01-31T02:45:08.740Z,979.89
2019-01-31T02:46:08.755Z,979.89
2019-01-31T02:47:08.771Z,979.88
2019-01-31T02:48:08.789Z,979.85
2019-01-31T02:49:08.799Z,979.87
2019-01-31T02:50:08.816Z,979.87
2019-01-31T02:51:08.830Z,979.84
2019-01-31T02:52:08.844Z,979.88
2019-01-31T02:53:08.880Z,979.87
2019-01-31T02:54:08.876Z,979.9
2019-01-31T02:55:08.890Z,979.88
2019-01-31T02:56:08.905Z,979.89
2019-01-31T02:57:08.921Z,979.88
2019-01-31T02:58:08.935Z,979.86
2019-01-31T02:59:08.951Z,979.86
2019-01-31T03:00:08.966Z,979.92
2019-01-31T03:01:08.980Z,979.95
2019-01-31T03:02:08.995Z,979.96
2019-01-31T03:03:09.010Z,979.99
2019-01-31T03:04:09.024Z,980
2019-01-31T03:05:09.041Z,979.99
2019-01-31T03:06:09.055Z,979.99
2019-01-31T03:07:09.069Z,979.98
2019-01-31T03:08:09.085Z,979.96
2019-01-31T03:09:09.099Z,979.97
2019-01-31T03:10:09.114Z,979.97
2019-01-31T03:11:09.130Z,979.98
2019-01-31T03:12:09.147Z,979.97
2019-01-31T03:13:09.161Z,979.98
2019-01-31T03:14:10.426Z,979.97
2019-01-31T03:15:09.190Z,980
2019-01-31T03:16:09.205Z,979.95
2019-01-31T03:17:09.223Z,979.99
2019-01-31T03:18:09.246Z,979.97
2019-01-31T03:19:09.250Z,979.95
2019-01-31T03:20:09.265Z,979.95
2019-01-31T03:21:09.279Z,979.95
2019-01-31T03:22:09.295Z,979.94
2019-01-31T03:23:09.312Z,979.93
2019-01-31T03:24:09.327Z,979.93
2019-01-31T03:25:09.339Z,979.95
2019-01-31T03:26:09.356Z,979.96
2019-01-31T03:27:09.368Z,979.97
2019-01-31T03:28:09.384Z,979.94
2019-01-31T03:29:09.400Z,979.94
2019-01-31T03:30:09.417Z,979.95
2019-01-31T03:31:09.430Z,979.94
2019-01-31T03:32:09.445Z,979.95
2019-01-31T03:33:09.462Z,979.92
2019-01-31T03:34:09.475Z,979.96
2019-01-31T03:35:09.492Z,979.98
2019-01-31T03:36:09.503Z,979.99
2019-01-31T03:37:09.520Z,980
2019-01-31T03:38:09.534Z,979.98
2019-01-31T03:39:09.548Z,980.01
2019-01-31T03:40:09.568Z,980
2019-01-31T03:41:09.579Z,980.02
2019-01-31T03:42:09.593Z,980.04
2019-01-31T03:43:09.611Z,980.04
2019-01-31T03:44:09.623Z,980.04
2019-01-31T03:45:09.640Z,979.98
2019-01-31T03:46:09.655Z,980.01
2019-01-31T03:47:09.669Z,980.04
2019-01-31T03:48:09.684Z,980.08
2019-01-31T03:49:09.698Z,980.06
2019-01-31T03:50:09.718Z,980.08
2019-01-31T03:51:09.728Z,980.13
2019-01-31T03:52:09.746Z,980.07
2019-01-31T03:53:09.756Z,980.12
2019-01-31T03:54:09.776Z,980.08
2019-01-31T03:55:09.788Z,980.06
2019-01-31T03:56:09.807Z,980.05
2019-01-31T03:57:09.818Z,980.05
2019-01-31T03:58:09.834Z,979.96
2019-01-31T03:59:09.848Z,979.99
2019-01-31T04:00:09.865Z,980.06
2019-01-31T04:01:09.881Z,980.02
2019-01-31T04:02:09.899Z,980.11
2019-01-31T04:03:09.907Z,980.12
2019-01-31T04:04:09.925Z,980.08
2019-01-31T04:05:09.938Z,980.09
2019-01-31T04:06:09.954Z,980.09
2019-01-31T04:07:09.970Z,980.08
2019-01-31T04:08:09.984Z,980.1
2019-01-31T04:09:09.997Z,980.08
2019-01-31T04:10:18.577Z,980.11
2019-01-31T04:11:10.026Z,980.11
2019-01-31T04:12:10.042Z,980.06
2019-01-31T04:13:10.058Z,980.1
2019-01-31T04:14:10.072Z,980.04
2019-01-31T04:15:10.086Z,980.07
2019-01-31T04:16:10.102Z,980.14
2019-01-31T04:17:10.117Z,980.15
2019-01-31T04:18:10.130Z,980.17
2019-01-31T04:19:10.145Z,980.16
2019-01-31T04:20:10.161Z,980.18
2019-01-31T04:21:10.177Z,980.15
2019-01-31T04:22:10.192Z,980.16
2019-01-31T04:23:10.203Z,980.14
2019-01-31T04:24:10.220Z,980.18
2019-01-31T04:25:10.236Z,980.19
2019-01-31T04:26:10.251Z,980.18
2019-01-31T04:27:10.264Z,980.21
2019-01-31T04:28:10.280Z,980.24
2019-01-31T04:29:10.295Z,980.25
2019-01-31T04:30:10.308Z,980.26
2019-01-31T04:31:10.323Z,980.26
2019-01-31T04:32:10.338Z,980.22
2019-01-31T04:33:10.352Z,980.2
2019-01-31T04:34:10.368Z,980.21
2019-01-31T04:35:10.384Z,980.24
2019-01-31T04:36:10.398Z,980.24
2019-01-31T04:37:10.412Z,980.26
2019-01-31T04:38:10.427Z,980.26
2019-01-31T04:39:10.441Z,980.31
2019-01-31T04:40:10.456Z,980.29
2019-01-31T04:41:10.470Z,980.28
2019-01-31T04:42:10.487Z,980.3
2019-01-31T04:43:10.502Z,980.32
2019-01-31T04:44:10.515Z,980.34
2019-01-31T04:45:10.529Z,980.31
2019-01-31T04:46:10.548Z,980.3
2019-01-31T04:47:10.559Z,980.28
2019-01-31T04:48:10.575Z,980.3
2019-01-31T04:49:10.589Z,980.23
2019-01-31T04:50:10.603Z,980.23
2019-01-31T04:51:10.619Z,980.21
2019-01-31T04:52:10.633Z,980.22
2019-01-31T04:53:10.650Z,980.18
2019-01-31T04:54:10.662Z,980.21
2019-01-31T04:55:10.678Z,980.21
2019-01-31T04:56:10.693Z,980.21
2019-01-31T04:57:10.707Z,980.25
2019-01-31T04:58:10.724Z,980.19
2019-01-31T04:59:10.737Z,980.26
2019-01-31T05:00:10.751Z,980.24
2019-01-31T05:01:10.769Z,980.25
2019-01-31T05:02:10.780Z,980.23
2019-01-31T05:03:10.795Z,980.25
2019-01-31T05:04:10.809Z,980.25
2019-01-31T05:05:10.824Z,980.26
2019-01-31T05:06:10.841Z,980.23
2019-01-31T05:07:10.855Z,980.24
2019-01-31T05:08:10.869Z,980.19
2019-01-31T05:09:10.889Z,980.19
2019-01-31T05:10:10.898Z,980.19
2019-01-31T05:11:10.913Z,980.24
2019-01-31T05:12:10.930Z,980.21
2019-01-31T05:13:10.942Z,980.19
2019-01-31T05:14:10.957Z,980.21
2019-01-31T05:15:10.973Z,980.2
2019-01-31T05:16:10.986Z,980.26
2019-01-31T05:17:11.001Z,980.23
2019-01-31T05:18:11.016Z,980.27
2019-01-31T05:19:11.037Z,980.29
2019-01-31T05:20:11.045Z,980.26
2019-01-31T05:21:11.060Z,980.23
2019-01-31T05:22:11.076Z,980.25
2019-01-31T05:23:11.089Z,980.23
2019-01-31T05:24:11.104Z,980.21
2019-01-31T05:25:11.119Z,980.17
2019-01-31T05:26:11.134Z,980.2
2019-01-31T05:27:11.149Z,980.18
2019-01-31T05:28:11.163Z,980.17
2019-01-31T05:29:11.177Z,980.2
2019-01-31T05:30:11.193Z,980.2
2019-01-31T05:31:11.207Z,980.16
2019-01-31T05:32:11.221Z,980.14
2019-01-31T05:33:11.236Z,980.14
2019-01-31T05:34:11.265Z,980.15
2019-01-31T05:35:11.271Z,980.19
2019-01-31T05:36:11.282Z,980.21
2019-01-31T05:37:11.298Z,980.2
2019-01-31T05:38:11.311Z,980.21
2019-01-31T05:39:11.325Z,980.27
2019-01-31T05:40:11.341Z,980.25
2019-01-31T05:41:11.355Z,980.26
2019-01-31T05:42:11.371Z,980.27
2019-01-31T05:43:11.384Z,980.28
2019-01-31T05:44:11.399Z,980.29
2019-01-31T05:45:11.415Z,980.28
2019-01-31T05:46:11.429Z,980.26
2019-01-31T05:47:11.445Z,980.26
2019-01-31T05:48:11.459Z,980.29
2019-01-31T05:49:11.474Z,980.25
2019-01-31T05:50:11.490Z,980.32
2019-01-31T05:51:11.510Z,980.33
2019-01-31T05:52:11.516Z,980.32
2019-01-31T05:53:11.534Z,980.31
2019-01-31T05:54:11.545Z,980.35
2019-01-31T05:55:11.562Z,980.35
2019-01-31T05:56:11.577Z,980.38
2019-01-31T05:57:11.592Z,980.39
2019-01-31T05:58:11.606Z,980.39
2019-01-31T05:59:11.620Z,980.41
2019-01-31T06:00:11.635Z,980.38
2019-01-31T06:01:11.648Z,980.39
2019-01-31T06:02:11.663Z,980.37
2019-01-31T06:03:11.678Z,980.41
2019-01-31T06:04:11.694Z,980.43
2019-01-31T06:05:11.708Z,980.46
2019-01-31T06:06:11.722Z,980.43
2019-01-31T06:07:11.738Z,980.44
2019-01-31T06:08:11.752Z,980.48
2019-01-31T06:09:11.766Z,980.51
2019-01-31T06:10:11.781Z,980.55
2019-01-31T06:11:11.796Z,980.53
2019-01-31T06:12:11.810Z,980.53
2019-01-31T06:13:11.825Z,980.57
2019-01-31T06:14:11.840Z,980.52
2019-01-31T06:15:11.855Z,980.55
2019-01-31T06:16:11.869Z,980.53
2019-01-31T06:17:11.887Z,980.52
2019-01-31T06:18:11.899Z,980.53
2019-01-31T06:19:11.911Z,980.55
2019-01-31T06:20:11.928Z,980.56
2019-01-31T06:21:11.942Z,980.58
2019-01-31T06:22:11.957Z,980.55
2019-01-31T06:23:11.971Z,980.57
2019-01-31T06:24:11.991Z,980.58
2019-01-31T06:25:12.013Z,980.58
2019-01-31T06:26:12.017Z,980.59
2019-01-31T06:27:12.032Z,980.58
2019-01-31T06:28:12.959Z,980.57
2019-01-31T06:29:12.058Z,980.54
2019-01-31T06:30:12.073Z,980.55
2019-01-31T06:31:12.088Z,980.58
2019-01-31T06:32:12.103Z,980.61
2019-01-31T06:33:12.119Z,980.58
2019-01-31T06:34:12.132Z,980.58
2019-01-31T06:35:12.146Z,980.57
2019-01-31T06:36:12.161Z,980.56
2019-01-31T06:37:12.174Z,980.57
2019-01-31T06:38:12.188Z,980.58
2019-01-31T06:39:12.204Z,980.61
2019-01-31T06:40:12.219Z,980.53
2019-01-31T06:41:18.463Z,980.53
2019-01-31T06:42:12.451Z,980.56
2019-01-31T06:43:12.262Z,980.56
2019-01-31T06:44:12.276Z,980.53
2019-01-31T06:45:12.291Z,980.54
2019-01-31T06:46:12.306Z,980.48
2019-01-31T06:47:12.320Z,980.51
2019-01-31T06:48:12.340Z,980.52
2019-01-31T06:49:12.348Z,980.54
2019-01-31T06:50:12.364Z,980.54
2019-01-31T06:51:12.378Z,980.58
2019-01-31T06:52:12.393Z,980.54
2019-01-31T06:53:12.406Z,980.53
2019-01-31T06:54:12.421Z,980.55
2019-01-31T06:55:12.435Z,980.57
2019-01-31T06:56:12.451Z,980.52
2019-01-31T06:57:12.466Z,980.57
2019-01-31T06:58:12.480Z,980.55
2019-01-31T06:59:14.537Z,980.59
2019-01-31T07:00:12.508Z,980.58
2019-01-31T07:01:12.523Z,980.6
2019-01-31T07:02:12.537Z,980.59
2019-01-31T07:03:12.550Z,980.65
2019-01-31T07:04:12.568Z,980.61
2019-01-31T07:05:12.587Z,980.63
2019-01-31T07:06:12.595Z,980.64
2019-01-31T07:07:12.611Z,980.64
2019-01-31T07:08:12.625Z,980.65
2019-01-31T07:09:12.641Z,980.61
2019-01-31T07:10:12.652Z,980.61
2019-01-31T07:11:12.667Z,980.61
2019-01-31T07:12:12.684Z,980.57
2019-01-31T07:13:12.700Z,980.59
2019-01-31T07:14:12.711Z,980.61
2019-01-31T07:15:12.726Z,980.64
2019-01-31T07:16:12.742Z,980.66
2019-01-31T07:17:12.755Z,980.66
2019-01-31T07:18:12.769Z,980.7
2019-01-31T07:19:12.784Z,980.73
2019-01-31T07:20:12.802Z,980.76
2019-01-31T07:21:12.814Z,980.8
2019-01-31T07:22:12.827Z,980.82
2019-01-31T07:23:12.842Z,980.81
2019-01-31T07:24:12.856Z,980.81
2019-01-31T07:25:12.887Z,980.79
2019-01-31T07:26:12.885Z,980.86
2019-01-31T07:27:12.899Z,980.85
2019-01-31T07:28:12.916Z,980.84
2019-01-31T07:29:12.928Z,980.84
2019-01-31T07:30:12.944Z,980.83
2019-01-31T07:31:12.959Z,980.85
2019-01-31T07:32:12.972Z,980.86
2019-01-31T07:33:12.988Z,980.84
2019-01-31T07:34:13.001Z,980.84
2019-01-31T07:35:13.024Z,980.84
2019-01-31T07:36:13.030Z,980.84
2019-01-31T07:37:13.044Z,980.89
2019-01-31T07:38:13.058Z,980.84
2019-01-31T07:39:13.075Z,980.9
2019-01-31T07:40:13.087Z,980.89
2019-01-31T07:41:13.103Z,980.94
2019-01-31T07:42:13.117Z,980.94
2019-01-31T07:43:13.131Z,980.99
2019-01-31T07:44:13.147Z,981.01
2019-01-31T07:45:13.162Z,981.04
2019-01-31T07:46:13.174Z,981.04
2019-01-31T07:47:13.188Z,981.04
2019-01-31T07:48:13.205Z,981.09
2019-01-31T07:49:13.218Z,981.09
2019-01-31T07:50:13.237Z,981.15
2019-01-31T07:51:13.248Z,981.13
2019-01-31T07:52:13.262Z,981.13
2019-01-31T07:53:13.277Z,981.12
2019-01-31T07:54:13.289Z,981.1
2019-01-31T07:55:13.304Z,981.1
2019-01-31T07:56:13.361Z,981.07
2019-01-31T07:57:13.334Z,981.1
2019-01-31T07:58:13.347Z,981.08
2019-01-31T07:59:13.362Z,981.09
2019-01-31T08:00:13.377Z,981.08
2019-01-31T08:01:13.392Z,981.09
2019-01-31T08:02:13.405Z,981.07
2019-01-31T08:03:13.419Z,981.1
2019-01-31T08:04:13.435Z,981.08
2019-01-31T08:05:13.451Z,981.09
2019-01-31T08:06:13.462Z,981.07
2019-01-31T08:07:13.477Z,981.08
2019-01-31T08:08:13.494Z,981.1
2019-01-31T08:09:13.507Z,981.09
2019-01-31T08:10:13.521Z,981.1
2019-01-31T08:11:13.536Z,981.19
2019-01-31T08:12:13.551Z,981.18
2019-01-31T08:13:13.565Z,981.22
2019-01-31T08:14:13.578Z,981.2
2019-01-31T08:15:13.598Z,981.24
2019-01-31T08:16:13.610Z,981.24
2019-01-31T08:17:13.622Z,981.24
2019-01-31T08:18:13.638Z,981.29
2019-01-31T08:19:13.653Z,981.32
2019-01-31T08:20:13.665Z,981.35
2019-01-31T08:21:13.681Z,981.37
2019-01-31T08:22:13.695Z,981.34
2019-01-31T08:23:13.712Z,981.37
2019-01-31T08:24:13.725Z,981.33
2019-01-31T08:25:13.740Z,981.34
2019-01-31T08:26:13.753Z,981.35
2019-01-31T08:27:13.766Z,981.35
2019-01-31T08:28:13.785Z,981.33
2019-01-31T08:29:13.797Z,981.32
2019-01-31T08:30:13.811Z,981.33
2019-01-31T08:31:13.826Z,981.3
2019-01-31T08:32:13.840Z,981.26
2019-01-31T08:33:13.858Z,981.27
2019-01-31T08:34:13.870Z,981.29
2019-01-31T08:35:13.883Z,981.28
2019-01-31T08:36:13.899Z,981.29
2019-01-31T08:37:13.914Z,981.35
2019-01-31T08:38:13.927Z,981.32
2019-01-31T08:39:13.946Z,981.34
2019-01-31T08:40:13.957Z,981.32
2019-01-31T08:41:13.972Z,981.31
2019-01-31T08:42:13.986Z,981.35
2019-01-31T08:43:14.000Z,981.31
2019-01-31T08:44:14.017Z,981.33
2019-01-31T08:45:14.031Z,981.31
2019-01-31T08:46:14.046Z,981.34
2019-01-31T08:47:14.060Z,981.33
2019-01-31T08:48:14.075Z,981.32
2019-01-31T08:49:14.089Z,981.29
2019-01-31T08:50:14.104Z,981.27
2019-01-31T08:51:14.118Z,981.25
2019-01-31T08:52:14.133Z,981.3
2019-01-31T08:53:14.147Z,981.28
2019-01-31T08:54:14.162Z,981.3
2019-01-31T08:55:14.179Z,981.37
2019-01-31T08:56:14.192Z,981.38
2019-01-31T08:57:14.206Z,981.45
2019-01-31T08:58:14.220Z,981.53
2019-01-31T08:59:14.237Z,981.54
2019-01-31T09:00:14.249Z,981.54
2019-01-31T09:01:14.265Z,981.54
2019-01-31T09:02:14.281Z,981.51
2019-01-31T09:03:14.294Z,981.58
2019-01-31T09:04:14.308Z,981.57
2019-01-31T09:05:14.323Z,981.53
2019-01-31T09:06:15.073Z,981.52
2019-01-31T09:07:14.354Z,981.55
2019-01-31T09:08:14.368Z,981.57
2019-01-31T09:09:14.384Z,981.56
2019-01-31T09:10:14.397Z,981.66
2019-01-31T09:11:14.411Z,981.58
2019-01-31T09:12:15.528Z,981.64
2019-01-31T09:13:14.440Z,981.66
2019-01-31T09:14:14.457Z,981.64
2019-01-31T09:15:14.470Z,981.64
2019-01-31T09:16:14.484Z,981.67
2019-01-31T09:17:14.499Z,981.69
2019-01-31T09:18:14.514Z,981.66
2019-01-31T09:19:14.529Z,981.66
2019-01-31T09:20:14.544Z,981.71
2019-01-31T09:21:14.557Z,981.7
2019-01-31T09:22:14.574Z,981.73
2019-01-31T09:23:14.588Z,981.68
2019-01-31T09:24:14.604Z,981.66
2019-01-31T09:25:14.618Z,981.65
2019-01-31T09:26:14.632Z,981.66
2019-01-31T09:27:14.647Z,981.66
2019-01-31T09:28:14.662Z,981.69
2019-01-31T09:29:14.675Z,981.69
2019-01-31T09:30:14.690Z,981.7
2019-01-31T09:31:14.706Z,981.75
2019-01-31T09:32:14.719Z,981.72
2019-01-31T09:33:14.735Z,981.71
2019-01-31T09:34:14.749Z,981.78
2019-01-31T09:35:14.769Z,981.75
2019-01-31T09:36:14.780Z,981.81
2019-01-31T09:37:14.794Z,981.81
2019-01-31T09:38:14.809Z,981.78
2019-01-31T09:39:14.825Z,981.87
2019-01-31T09:40:14.837Z,981.83
2019-01-31T09:41:14.854Z,981.78
2019-01-31T09:42:25.993Z,981.8
2019-01-31T09:43:14.882Z,981.85
2019-01-31T09:44:14.896Z,981.81
2019-01-31T09:45:14.912Z,981.82
2019-01-31T09:46:14.949Z,981.86
2019-01-31T09:47:14.942Z,981.84
2019-01-31T09:48:14.956Z,981.86
2019-01-31T09:49:14.970Z,981.87
2019-01-31T09:50:14.987Z,981.91
2019-01-31T09:51:15.001Z,981.9
2019-01-31T09:52:15.016Z,981.88
2019-01-31T09:53:15.031Z,981.91
2019-01-31T09:54:15.048Z,981.91
2019-01-31T09:55:15.059Z,981.9
2019-01-31T09:56:15.075Z,981.9
2019-01-31T09:57:15.089Z,981.95
2019-01-31T09:58:15.104Z,981.9
2019-01-31T09:59:15.117Z,981.89
2019-01-31T10:00:15.132Z,981.89
2019-01-31T10:01:15.149Z,981.92
2019-01-31T10:02:15.162Z,981.89
2019-01-31T10:03:15.177Z,981.9
2019-01-31T10:04:15.193Z,981.94
2019-01-31T10:05:15.208Z,981.92
2019-01-31T10:06:15.223Z,981.92
2019-01-31T10:07:15.235Z,981.89
2019-01-31T10:08:15.252Z,981.9
2019-01-31T10:09:16.012Z,981.92
2019-01-31T10:10:15.293Z,981.87
2019-01-31T10:11:15.307Z,981.81
2019-01-31T10:12:15.311Z,981.8
2019-01-31T10:13:15.334Z,981.75
2019-01-31T10:14:15.385Z,981.77
2019-01-31T10:15:15.393Z,981.77
2019-01-31T10:16:15.456Z,981.73
2019-01-31T10:17:15.470Z,981.78
2019-01-31T10:18:15.406Z,981.77
2019-01-31T10:19:15.521Z,981.74
2019-01-31T10:20:15.472Z,981.73
2019-01-31T10:21:15.480Z,981.67
2019-01-31T10:22:15.498Z,981.66
2019-01-31T10:23:15.475Z,981.65
2019-01-31T10:24:15.646Z,981.66
2019-01-31T10:25:15.598Z,981.64
2019-01-31T10:26:15.522Z,981.64
2019-01-31T10:27:15.534Z,981.61
2019-01-31T10:28:15.549Z,981.62
2019-01-31T10:29:15.614Z,981.61
2019-01-31T10:30:15.579Z,981.55
2019-01-31T10:31:15.595Z,981.53
2019-01-31T10:32:15.610Z,981.55
2019-01-31T10:33:15.622Z,981.54
2019-01-31T10:34:15.637Z,981.53
2019-01-31T10:35:15.653Z,981.5
2019-01-31T10:36:15.668Z,981.54
2019-01-31T10:37:15.683Z,981.49
2019-01-31T10:38:15.698Z,981.5
2019-01-31T10:39:15.761Z,981.47
2019-01-31T10:40:15.727Z,981.49
2019-01-31T10:41:15.742Z,981.5
2019-01-31T10:42:15.759Z,981.47
2019-01-31T10:43:15.770Z,981.45
2019-01-31T10:44:15.786Z,981.4
2019-01-31T10:45:15.801Z,981.43
2019-01-31T10:46:15.815Z,981.41
2019-01-31T10:47:15.830Z,981.4
2019-01-31T10:48:15.845Z,981.44
2019-01-31T10:49:15.862Z,981.42
2019-01-31T10:50:15.875Z,981.4
2019-01-31T10:51:15.890Z,981.43
2019-01-31T10:52:15.906Z,981.43
2019-01-31T10:53:15.920Z,981.41
2019-01-31T10:54:15.950Z,981.38
2019-01-31T10:55:15.949Z,981.38
2019-01-31T10:56:15.966Z,981.35
2019-01-31T10:57:15.980Z,981.32
2019-01-31T10:58:15.995Z,981.3
2019-01-31T10:59:16.009Z,981.25
2019-01-31T11:00:16.026Z,981.26
2019-01-31T11:01:16.040Z,981.23
2019-01-31T11:02:16.054Z,981.22
2019-01-31T11:03:16.073Z,981.22
2019-01-31T11:04:16.084Z,981.24
2019-01-31T11:05:16.099Z,981.18
2019-01-31T11:06:16.114Z,981.14
2019-01-31T11:07:16.129Z,981.17
2019-01-31T11:08:16.145Z,981.22
2019-01-31T11:09:16.159Z,981.23
2019-01-31T11:10:16.173Z,981.22
2019-01-31T11:11:16.190Z,981.21
2019-01-31T11:12:16.204Z,981.23
2019-01-31T11:13:16.219Z,981.2
2019-01-31T11:14:16.233Z,981.22
2019-01-31T11:15:16.249Z,981.16
2019-01-31T11:16:16.263Z,981.2
2019-01-31T11:17:16.279Z,981.13
2019-01-31T11:18:16.294Z,981.11
2019-01-31T11:19:16.308Z,981.12
2019-01-31T11:20:16.323Z,981.13
2019-01-31T11:21:16.340Z,981.09
2019-01-31T11:22:16.354Z,981.09
2019-01-31T11:23:16.369Z,981.02
2019-01-31T11:24:16.383Z,981.01
2019-01-31T11:25:16.401Z,981
2019-01-31T11:26:16.414Z,980.99
2019-01-31T11:27:16.431Z,980.98
2019-01-31T11:28:16.445Z,980.99
2019-01-31T11:29:16.464Z,980.94
2019-01-31T11:30:16.474Z,980.89
2019-01-31T11:31:16.489Z,980.89
2019-01-31T11:32:16.503Z,980.91
2019-01-31T11:33:16.520Z,980.89
2019-01-31T11:34:16.533Z,980.92
2019-01-31T11:35:16.551Z,980.83
2019-01-31T11:36:16.565Z,980.86
2019-01-31T11:37:16.579Z,980.84
2019-01-31T11:38:16.594Z,980.88
2019-01-31T11:39:16.613Z,980.85
2019-01-31T11:40:16.624Z,980.85
2019-01-31T11:41:16.640Z,980.85
2019-01-31T11:42:16.654Z,980.78
2019-01-31T11:43:16.670Z,980.81
2019-01-31T11:44:16.687Z,980.77
2019-01-31T11:45:16.699Z,980.76
2019-01-31T11:46:16.715Z,980.76
2019-01-31T11:47:16.731Z,980.73
2019-01-31T11:48:16.744Z,980.71
2019-01-31T11:49:16.761Z,980.67
2019-01-31T11:50:16.776Z,980.65
2019-01-31T11:51:16.791Z,980.62
2019-01-31T11:52:16.808Z,980.64
2019-01-31T11:53:16.820Z,980.63
2019-01-31T11:54:16.837Z,980.58
2019-01-31T11:55:16.851Z,980.63
2019-01-31T11:56:16.867Z,980.6
2019-01-31T11:57:16.882Z,980.58
2019-01-31T11:58:16.897Z,980.54
2019-01-31T11:59:16.912Z,980.57
2019-01-31T12:00:16.928Z,980.56
2019-01-31T12:01:16.944Z,980.51
2019-01-31T12:02:16.959Z,980.54
2019-01-31T12:03:16.972Z,980.5
2019-01-31T12:04:16.988Z,980.47
2019-01-31T12:05:17.003Z,980.52
2019-01-31T12:06:17.018Z,980.49
2019-01-31T12:07:17.033Z,980.45
2019-01-31T12:08:17.051Z,980.47
2019-01-31T12:09:17.066Z,980.45
2019-01-31T12:10:17.078Z,980.41
2019-01-31T12:11:17.094Z,980.39
2019-01-31T12:12:17.109Z,980.38
2019-01-31T12:13:23.432Z,980.37
2019-01-31T12:14:17.139Z,980.33
2019-01-31T12:15:17.171Z,980.34
2019-01-31T12:16:17.170Z,980.36
2019-01-31T12:17:17.184Z,980.35
2019-01-31T12:18:17.200Z,980.34
2019-01-31T12:19:17.217Z,980.3
2019-01-31T12:20:17.233Z,980.31
2019-01-31T12:21:17.246Z,980.3
2019-01-31T12:22:17.262Z,980.3
2019-01-31T12:23:17.275Z,980.28
2019-01-31T12:24:17.291Z,980.28
2019-01-31T12:25:17.311Z,980.28
2019-01-31T12:26:17.322Z,980.24
2019-01-31T12:27:17.340Z,980.27
2019-01-31T12:28:17.354Z,980.26
2019-01-31T12:29:17.369Z,980.23
2019-01-31T12:30:17.382Z,980.25
2019-01-31T12:31:17.397Z,980.27